Time;durP1;ratioP1;P1;durP2;ratioP2;P2;SDS_P1;SDS_P2;PMS_P1;PMS_P2;Temp;Humidity;BMP_temperature;BMP_pressure;BME280_temperature;BME280_humidity;BME280_pressure;Samples;Min_cycle;Max_cycle;Signal;HPM_P1;HPM_P2
2022/06/19 00:03:50;;;;;;;20.70;4.63;;;27.30;50.10;;;;;;10428018;28;20223;-68
2022/06/19 00:08:54;;;;;;;17.03;4.43;;;26.80;51.60;;;;;;10432653;28;20226;-69
2022/06/19 00:13:55;;;;;;;19.60;4.57;;;26.50;52.70;;;;;;10431828;28;20225;-69
2022/06/19 00:18:56;;;;;;;16.33;4.37;;;26.10;54.10;;;;;;10431853;28;20232;-70
2022/06/19 00:23:56;;;;;;;16.07;4.33;;;25.90;55.00;;;;;;10435947;28;20647;-68
2022/06/19 00:28:57;;;;;;;15.37;4.20;;;25.70;55.60;;;;;;10430604;28;20251;-69
2022/06/19 00:33:58;;;;;;;17.90;4.23;;;25.50;56.30;;;;;;10432319;28;20597;-68
2022/06/19 00:38:58;;;;;;;19.13;4.47;;;25.30;56.80;;;;;;10430415;28;20262;-69
2022/06/19 00:44:03;;;;;;;16.03;4.40;;;25.20;56.90;;;;;;10426964;28;20310;-69
2022/06/19 00:49:08;;;;;;;15.40;4.27;;;25.10;57.30;;;;;;10433343;28;20771;-69
2022/06/19 00:54:11;;;;;;;15.13;4.03;;;25.00;57.90;;;;;;10428965;28;20220;-69
2022/06/19 00:59:14;;;;;;;15.30;4.47;;;24.90;58.30;;;;;;10432606;28;20623;-67
2022/06/19 01:04:27;;;;;;;17.83;5.07;;;24.70;58.70;;;;;;10421822;28;20236;-69
2022/06/19 01:09:28;;;;;;;13.13;4.27;;;24.50;59.60;;;;;;10414739;28;20672;-68
2022/06/19 01:14:30;;;;;;;19.77;4.80;;;24.40;59.80;;;;;;10435161;28;20227;-68
2022/06/19 01:19:36;;;;;;;14.27;4.17;;;24.30;60.40;;;;;;10434194;28;20236;-69
2022/06/19 01:25:09;;;;;;;18.33;4.90;;;24.20;60.70;;;;;;10425283;28;20212;-68
2022/06/19 01:30:11;;;;;;;18.70;5.07;;;24.30;59.80;;;;;;10425521;28;20221;-69
2022/06/19 01:35:12;;;;;;;17.00;4.73;;;24.50;58.90;;;;;;10426248;28;20218;-69
2022/06/19 01:40:19;;;;;;;15.23;5.07;;;24.70;58.40;;;;;;10427244;28;20588;-69
2022/06/19 01:45:21;;;;;;;15.27;5.07;;;24.80;57.80;;;;;;10432954;28;20246;-68
2022/06/19 01:50:30;;;;;;;18.87;5.20;;;24.80;56.90;;;;;;10424998;28;20211;-68
2022/06/19 01:55:32;;;;;;;17.80;5.50;;;24.90;56.00;;;;;;10412106;28;20220;-68
2022/06/19 02:00:35;;;;;;;15.03;4.13;;;24.80;56.10;;;;;;10426881;28;20224;-68
2022/06/19 02:05:38;;;;;;;15.17;4.50;;;24.90;56.30;;;;;;10424454;28;20729;-69
2022/06/19 02:10:40;;;;;;;21.27;4.63;;;24.90;55.60;;;;;;10438800;28;20305;-68
2022/06/19 02:15:44;;;;;;;10.80;4.30;;;24.70;57.30;;;;;;10423636;28;20224;-69
2022/06/19 02:20:45;;;;;;;14.23;4.47;;;24.50;57.40;;;;;;10429849;28;20723;-69
2022/06/19 02:25:46;;;;;;;15.03;5.97;;;24.30;58.50;;;;;;10438436;28;20219;-67
2022/06/19 02:30:48;;;;;;;14.87;4.23;;;24.10;58.80;;;;;;10432340;28;20228;-69
2022/06/19 02:35:49;;;;;;;12.70;3.80;;;24.00;59.80;;;;;;10440644;28;20229;-69
2022/06/19 02:40:55;;;;;;;14.83;3.93;;;24.00;59.60;;;;;;10439061;28;20216;-69
2022/06/19 02:45:58;;;;;;;20.27;4.73;;;23.90;59.50;;;;;;10431915;28;20322;-69
2022/06/19 02:51:03;;;;;;;15.60;4.90;;;23.80;60.30;;;;;;10434366;28;20267;-69
2022/06/19 02:56:04;;;;;;;16.03;4.90;;;23.60;62.90;;;;;;10431163;28;20591;-69
2022/06/19 03:01:04;;;;;;;15.77;4.30;;;23.40;64.40;;;;;;10434155;28;20235;-69
2022/06/19 03:06:06;;;;;;;12.73;4.50;;;23.20;65.40;;;;;;10433494;28;20227;-69
2022/06/19 03:11:07;;;;;;;17.77;4.63;;;23.10;66.20;;;;;;10430990;28;20216;-70
2022/06/19 03:16:09;;;;;;;13.50;4.10;;;23.00;66.80;;;;;;10431933;28;20237;-67
2022/06/19 03:21:10;;;;;;;14.03;4.40;;;23.00;67.30;;;;;;10430150;28;20224;-69
2022/06/19 03:26:11;;;;;;;13.67;3.97;;;23.00;67.40;;;;;;10438526;28;20228;-69
2022/06/19 03:31:22;;;;;;;11.50;4.30;;;23.00;67.80;;;;;;10421155;28;20719;-69
2022/06/19 03:36:24;;;;;;;20.33;4.80;;;22.90;68.00;;;;;;10421885;28;20224;-69
2022/06/19 03:41:24;;;;;;;14.67;4.27;;;22.90;67.60;;;;;;10436652;28;20250;-68
2022/06/19 03:46:25;;;;;;;16.00;5.30;;;23.10;67.20;;;;;;10429074;28;20244;-69
2022/06/19 03:51:27;;;;;;;16.50;4.87;;;23.10;66.50;;;;;;10435966;28;20855;-68
2022/06/19 03:56:30;;;;;;;13.47;5.00;;;23.20;66.00;;;;;;10428924;28;20304;-69
2022/06/19 04:01:33;;;;;;;12.67;3.97;;;23.30;65.40;;;;;;10431962;28;20251;-68
2022/06/19 04:06:39;;;;;;;10.43;4.40;;;23.50;65.40;;;;;;10427532;28;20277;-69
2022/06/19 04:11:40;;;;;;;20.63;4.80;;;23.80;65.60;;;;;;10430518;28;20825;-68
2022/06/19 04:16:43;;;;;;;17.17;4.67;;;23.90;64.50;;;;;;10433452;28;20220;-68
2022/06/19 04:21:45;;;;;;;13.47;4.40;;;23.90;64.90;;;;;;10430686;28;20267;-69
2022/06/19 04:26:45;;;;;;;15.00;4.70;;;24.00;64.40;;;;;;10435503;28;20535;-69
2022/06/19 04:31:46;;;;;;;14.47;4.47;;;24.20;64.20;;;;;;10425355;28;21042;-68
2022/06/19 04:36:47;;;;;;;13.30;4.83;;;24.40;63.80;;;;;;10436103;28;20266;-68
2022/06/19 04:41:48;;;;;;;15.20;4.83;;;24.80;63.00;;;;;;10427466;28;20760;-70
2022/06/19 04:46:48;;;;;;;13.57;4.87;;;25.10;62.40;;;;;;10429558;28;20319;-69
2022/06/19 04:51:49;;;;;;;16.73;4.70;;;25.30;61.70;;;;;;10431857;28;20220;-69
2022/06/19 04:56:49;;;;;;;18.30;4.60;;;25.40;61.40;;;;;;10434332;28;20683;-68
2022/06/19 05:01:50;;;;;;;12.47;4.43;;;25.60;60.80;;;;;;10426459;28;20230;-68
2022/06/19 05:06:51;;;;;;;16.33;4.60;;;25.90;60.60;;;;;;10425107;28;20664;-69
2022/06/19 05:11:51;;;;;;;12.73;4.80;;;27.60;58.40;;;;;;10425111;28;20568;-70
2022/06/19 05:16:52;;;;;;;16.37;4.40;;;29.60;53.00;;;;;;10425402;28;20216;-69
2022/06/19 05:21:53;;;;;;;16.43;4.80;;;31.20;50.00;;;;;;10425004;28;20228;-69
2022/06/19 05:26:56;;;;;;;17.23;4.60;;;32.50;47.30;;;;;;10429132;28;20706;-69
2022/06/19 05:31:57;;;;;;;17.03;4.47;;;33.60;45.50;;;;;;10427434;28;20224;-68
2022/06/19 05:36:57;;;;;;;15.67;5.03;;;34.40;43.60;;;;;;10428853;28;20220;-68
2022/06/19 05:41:58;;;;;;;18.97;5.60;;;35.10;41.80;;;;;;10427866;28;20230;-68
2022/06/19 05:46:58;;;;;;;22.17;4.73;;;35.40;41.20;;;;;;10428068;28;20281;-68
2022/06/19 05:51:59;;;;;;;15.30;4.77;;;36.00;40.30;;;;;;10425867;28;20437;-67
2022/06/19 05:57:00;;;;;;;13.53;4.43;;;36.60;39.70;;;;;;10428473;28;20418;-68
2022/06/19 06:02:01;;;;;;;15.50;4.47;;;37.30;38.30;;;;;;10437746;28;20215;-68
2022/06/19 06:07:02;;;;;;;17.73;4.50;;;37.70;37.50;;;;;;10439926;28;20243;-69
2022/06/19 06:12:04;;;;;;;16.33;4.13;;;38.30;37.20;;;;;;10435570;28;20213;-68
2022/06/19 06:17:08;;;;;;;18.90;4.40;;;38.80;35.40;;;;;;10440060;28;20556;-70
2022/06/19 06:22:08;;;;;;;15.17;4.23;;;39.10;34.90;;;;;;10437322;28;20251;-69
2022/06/19 06:27:09;;;;;;;19.10;5.07;;;39.40;34.60;;;;;;10432129;28;20234;-69
2022/06/19 06:32:09;;;;;;;13.40;4.80;;;39.80;34.00;;;;;;10438204;28;20772;-69
2022/06/19 06:37:10;;;;;;;17.17;4.47;;;40.20;33.90;;;;;;10430490;28;20220;-69
2022/06/19 06:42:11;;;;;;;17.17;5.03;;;40.90;33.20;;;;;;10437586;28;20217;-69
2022/06/19 06:47:11;;;;;;;17.70;5.30;;;41.50;32.20;;;;;;10429279;28;20220;-69
2022/06/19 06:52:12;;;;;;;20.33;5.20;;;41.70;31.60;;;;;;10436078;28;20308;-69
2022/06/19 06:57:13;;;;;;;16.40;5.23;;;41.60;31.80;;;;;;10430054;28;20252;-69
2022/06/19 07:02:13;;;;;;;12.57;4.83;;;42.00;31.40;;;;;;10435185;28;20220;-69
2022/06/19 07:07:14;;;;;;;15.83;4.90;;;42.60;30.90;;;;;;10426619;28;20258;-68
2022/06/19 07:12:14;;;;;;;19.67;6.00;;;43.40;30.30;;;;;;10428619;28;20232;-69
2022/06/19 07:17:15;;;;;;;15.77;4.70;;;43.80;29.70;;;;;;10435753;28;20246;-70
2022/06/19 07:22:17;;;;;;;13.93;5.87;;;43.50;29.50;;;;;;10424924;28;20873;-69
2022/06/19 07:27:18;;;;;;;14.97;5.20;;;43.70;29.60;;;;;;10428871;28;20715;-69
2022/06/19 07:32:18;;;;;;;16.80;4.78;;;44.20;28.90;;;;;;10436267;28;20236;-70
2022/06/19 07:37:19;;;;;;;16.25;5.43;;;44.80;28.90;;;;;;10430509;28;20223;-69
2022/06/19 07:42:19;;;;;;;15.48;5.13;;;45.10;28.70;;;;;;10426604;28;20265;-69
2022/06/19 07:52:42;;;;;;;17.38;5.65;;;46.10;27.90;;;;;;10418975;28;20223;-70
2022/06/19 07:57:43;;;;;;;18.70;5.20;;;46.60;26.90;;;;;;10429863;28;20236;-71
2022/06/19 08:02:49;;;;;;;11.63;5.15;;;46.60;27.20;;;;;;10432762;28;20738;-69
2022/06/19 08:07:52;;;;;;;16.80;5.53;;;46.50;27.00;;;;;;10430385;28;20251;-69
2022/06/19 08:12:53;;;;;;;16.40;5.82;;;46.60;26.80;;;;;;10429796;28;20228;-69
2022/06/19 08:17:54;;;;;;;18.27;5.00;;;46.10;27.60;;;;;;10430663;28;20232;-69
2022/06/19 08:22:54;;;;;;;14.60;5.63;;;46.70;27.20;;;;;;10430068;28;20232;-69
2022/06/19 08:27:55;;;;;;;11.15;5.25;;;47.60;26.50;;;;;;10429026;28;20212;-69
2022/06/19 08:32:56;;;;;;;14.27;5.10;;;47.40;26.50;;;;;;10429010;28;20221;-69
2022/06/19 08:38:05;;;;;;;15.90;5.50;;;47.60;26.50;;;;;;10429749;28;20246;-69
2022/06/19 08:43:19;;;;;;;10.48;4.88;;;48.20;26.00;;;;;;10433115;28;20223;-69
2022/06/19 08:48:35;;;;;;;12.20;4.80;;;48.50;25.80;;;;;;10420850;28;20282;-70
2022/06/19 08:54:00;;;;;;;16.85;5.10;;;48.50;25.60;;;;;;10420254;28;20258;-70
2022/06/19 08:59:13;;;;;;;15.05;4.53;;;48.40;25.60;;;;;;10427319;28;20240;-70
2022/06/19 09:10:21;;;;;;;9.98;4.60;;;48.10;25.80;;;;;;10431870;28;20248;-69
2022/06/19 09:15:40;;;;;;;11.88;5.07;;;49.20;25.10;;;;;;10432101;28;20378;-70
2022/06/19 09:20:50;;;;;;;9.60;4.32;;;49.30;24.80;;;;;;10422058;28;20232;-70
2022/06/19 09:26:12;;;;;;;15.40;5.00;;;49.30;25.00;;;;;;10422677;28;20606;-70
2022/06/19 09:31:42;;;;;;;11.00;4.97;;;49.80;24.60;;;;;;10426731;28;20221;-70
2022/06/19 09:36:46;;;;;;;12.02;5.28;;;49.50;24.70;;;;;;10429229;28;20227;-69
2022/06/19 09:41:54;;;;;;;12.98;4.90;;;49.10;25.40;;;;;;10436101;28;20238;-69
2022/06/19 09:47:07;;;;;;;14.00;4.93;;;49.90;24.60;;;;;;10430106;28;20279;-69
2022/06/19 09:52:18;;;;;;;11.27;5.03;;;49.80;24.50;;;;;;10430255;28;20227;-69
2022/06/19 09:57:31;;;;;;;11.68;5.07;;;49.90;24.40;;;;;;10438512;28;20594;-69
2022/06/19 10:03:11;;;;;;;8.80;4.80;;;49.70;25.10;;;;;;10424078;28;20224;-68
2022/06/19 10:08:14;;;;;;;11.93;5.40;;;50.10;24.50;;;;;;10418770;28;20224;-68
2022/06/19 10:13:30;;;;;;;10.65;5.03;;;50.10;24.20;;;;;;10437193;28;20231;-69
2022/06/19 10:18:40;;;;;;;14.52;5.10;;;50.30;24.40;;;;;;10423095;28;20228;-69
2022/06/19 10:23:57;;;;;;;12.15;5.28;;;50.50;24.20;;;;;;10435899;28;20227;-68
2022/06/19 10:29:16;;;;;;;23.98;6.05;;;51.20;24.10;;;;;;10434509;28;20769;-68
2022/06/19 10:34:35;;;;;;;10.25;5.35;;;51.30;23.80;;;;;;10430012;28;20307;-68
2022/06/19 10:40:03;;;;;;;9.90;4.93;;;50.80;23.90;;;;;;10425154;28;20252;-68
2022/06/19 10:45:31;;;;;;;11.13;5.20;;;50.80;24.20;;;;;;10431148;28;20221;-69
2022/06/19 10:50:51;;;;;;;13.18;5.70;;;50.50;24.40;;;;;;10422088;28;20216;-70
2022/06/19 10:56:15;;;;;;;18.75;6.35;;;50.80;24.20;;;;;;10431699;28;20222;-70
2022/06/19 11:07:13;;;;;;;16.27;6.43;;;50.00;24.60;;;;;;10435168;28;20255;-69
2022/06/19 11:12:38;;;;;;;11.75;5.15;;;50.20;24.70;;;;;;10434974;28;20224;-68
2022/06/19 11:17:41;;;;;;;13.13;5.75;;;50.20;24.70;;;;;;10422940;28;20220;-68
2022/06/19 11:22:44;;;;;;;11.85;5.72;;;49.80;24.70;;;;;;10422671;28;20208;-68
2022/06/19 11:27:56;;;;;;;22.55;5.38;;;49.70;24.90;;;;;;10432062;28;20225;-69
2022/06/19 11:32:57;;;;;;;9.07;5.10;;;49.70;25.20;;;;;;10431829;28;20216;-69
2022/06/19 11:37:58;;;;;;;21.10;5.75;;;49.80;25.10;;;;;;10427808;28;20231;-69
2022/06/19 11:43:00;;;;;;;12.87;5.17;;;47.60;26.30;;;;;;10427182;28;20212;-69
2022/06/19 11:48:06;;;;;;;12.10;5.00;;;44.40;29.00;;;;;;10428959;28;20221;-69
2022/06/19 11:53:08;;;;;;;15.07;5.23;;;42.20;31.50;;;;;;10433646;28;20255;-69
2022/06/19 11:58:33;;;;;;;14.23;6.13;;;40.90;33.20;;;;;;10428525;28;20319;-68
2022/06/19 12:03:55;;;;;;;13.40;5.83;;;40.00;34.90;;;;;;10419377;28;20215;-69
2022/06/19 12:09:04;;;;;;;15.47;5.67;;;39.70;35.30;;;;;;10430435;28;20222;-68
2022/06/19 12:14:10;;;;;;;13.90;5.90;;;39.30;36.00;;;;;;10429391;28;20260;-68
2022/06/19 12:19:29;;;;;;;20.33;6.70;;;39.00;36.30;;;;;;10432795;28;20315;-68
2022/06/19 12:24:46;;;;;;;14.27;6.27;;;38.90;36.40;;;;;;10418790;28;20262;-68
2022/06/19 12:29:53;;;;;;;16.27;6.33;;;38.50;37.10;;;;;;10431895;28;20228;-68
2022/06/19 12:34:57;;;;;;;20.20;7.13;;;38.30;37.40;;;;;;10431011;28;20702;-69
2022/06/19 12:39:58;;;;;;;21.93;6.77;;;38.30;37.70;;;;;;10429007;28;20313;-69
2022/06/19 12:45:26;;;;;;;20.63;6.60;;;38.10;37.80;;;;;;10428302;28;20211;-69
2022/06/19 12:50:44;;;;;;;15.63;6.13;;;38.00;38.00;;;;;;10426769;28;20216;-68
2022/06/19 12:55:48;;;;;;;17.03;6.00;;;38.10;37.70;;;;;;10430777;28;20220;-69
2022/06/19 13:01:04;;;;;;;15.60;6.30;;;38.00;37.90;;;;;;10427935;28;20357;-69
2022/06/19 13:06:36;;;;;;;15.33;6.03;;;38.10;37.90;;;;;;10427864;28;20311;-69
2022/06/19 13:11:55;;;;;;;18.60;6.60;;;37.90;39.00;;;;;;10419958;28;20248;-69
2022/06/19 13:17:17;;;;;;;14.43;6.23;;;37.80;38.00;;;;;;10427352;28;20212;-68
2022/06/19 13:22:27;;;;;;;12.70;6.43;;;37.50;38.60;;;;;;10417498;28;20212;-69
2022/06/19 13:27:52;;;;;;;20.63;6.50;;;37.50;38.90;;;;;;10413533;28;20212;-69
2022/06/19 13:33:36;;;;;;;19.33;6.63;;;37.30;39.00;;;;;;10428086;28;20208;-69
2022/06/19 13:39:18;;;;;;;14.20;5.70;;;37.20;38.20;;;;;;10415393;28;20220;-68
2022/06/19 13:44:28;;;;;;;17.10;6.40;;;37.20;38.40;;;;;;10422380;28;20250;-69
2022/06/19 13:49:36;;;;;;;17.97;6.23;;;37.10;38.60;;;;;;10417337;28;20237;-68
2022/06/19 13:54:46;;;;;;;15.53;6.77;;;37.00;38.30;;;;;;10429386;28;20703;-68
2022/06/19 14:00:05;;;;;;;16.90;6.43;;;37.00;38.70;;;;;;10422738;28;20220;-68
2022/06/19 14:05:32;;;;;;;19.23;6.10;;;37.10;39.20;;;;;;10429120;28;20212;-69
2022/06/19 14:10:33;;;;;;;15.00;6.57;;;37.00;38.80;;;;;;10410213;28;20237;-69
2022/06/19 14:15:49;;;;;;;15.80;6.40;;;36.90;39.00;;;;;;10430744;28;20235;-69
2022/06/19 14:21:08;;;;;;;17.93;6.37;;;36.90;38.80;;;;;;10432644;28;20226;-69
2022/06/19 14:26:17;;;;;;;17.23;6.53;;;36.90;38.70;;;;;;10438149;28;20226;-68
2022/06/19 14:31:25;;;;;;;11.93;6.07;;;36.80;38.90;;;;;;10430994;28;20298;-69
2022/06/19 14:36:32;;;;;;;16.97;6.53;;;36.80;38.70;;;;;;10423354;28;20294;-69
2022/06/19 14:41:38;;;;;;;16.90;7.27;;;36.70;39.00;;;;;;10431304;28;20228;-69
2022/06/19 14:47:16;;;;;;;18.43;6.53;;;36.80;38.30;;;;;;10436060;28;20239;-68
2022/06/19 14:52:53;;;;;;;15.50;6.83;;;36.80;38.30;;;;;;10436812;28;20220;-69
2022/06/19 14:57:57;;;;;;;14.20;6.40;;;36.70;38.30;;;;;;10429704;28;20256;-70
2022/06/19 15:03:06;;;;;;;13.13;6.17;;;36.70;38.80;;;;;;10433544;28;20213;-69
2022/06/19 15:08:09;;;;;;;18.13;6.50;;;36.70;39.10;;;;;;10437208;28;20220;-69
2022/06/19 15:13:22;;;;;;;17.30;6.27;;;36.70;38.90;;;;;;10436173;28;20219;-69
2022/06/19 15:18:33;;;;;;;17.00;6.20;;;36.70;39.10;;;;;;10429693;28;20248;-69
2022/06/19 15:23:33;;;;;;;17.00;5.83;;;36.70;38.80;;;;;;10422268;28;20209;-69
2022/06/19 15:28:40;;;;;;;21.93;6.73;;;36.60;38.70;;;;;;10430874;28;20628;-69
2022/06/19 15:33:46;;;;;;;18.77;6.13;;;36.60;38.90;;;;;;10434175;28;20219;-68
2022/06/19 15:39:07;;;;;;;19.27;6.77;;;36.50;39.30;;;;;;10432335;28;20581;-69
2022/06/19 15:44:17;;;;;;;14.67;5.90;;;36.50;39.50;;;;;;10429064;28;20217;-68
2022/06/19 15:49:18;;;;;;;18.23;6.23;;;36.50;39.60;;;;;;10429104;28;20228;-68
2022/06/19 15:54:20;;;;;;;14.83;5.90;;;36.50;39.70;;;;;;10428981;28;20212;-69
2022/06/19 15:59:25;;;;;;;19.83;6.63;;;36.40;39.70;;;;;;10435710;28;20255;-69
2022/06/19 16:04:33;;;;;;;12.80;6.03;;;36.40;40.10;;;;;;10419534;28;20250;-69
2022/06/19 16:09:50;;;;;;;15.13;6.47;;;36.30;40.00;;;;;;10427019;28;20235;-68
2022/06/19 16:15:15;;;;;;;23.10;6.43;;;36.30;40.50;;;;;;10434478;28;20219;-69
2022/06/19 16:20:21;;;;;;;15.00;5.80;;;36.20;40.10;;;;;;10428281;28;20224;-69
2022/06/19 16:25:28;;;;;;;21.50;5.87;;;36.20;40.40;;;;;;10433687;28;20229;-69
2022/06/19 16:30:38;;;;;;;14.03;6.20;;;36.10;40.00;;;;;;10419016;28;20261;-68
2022/06/19 16:46:29;;;;;;;23.83;6.13;;;35.70;42.70;;;;;;10425167;28;20227;-69
2022/06/19 16:51:31;;;;;;;22.10;6.03;;;34.80;46.40;;;;;;10416576;28;20225;-68
2022/06/19 16:56:33;;;;;;;19.50;6.50;;;33.90;48.20;;;;;;10432353;28;20219;-69
2022/06/19 17:01:40;;;;;;;17.13;5.87;;;33.10;49.70;;;;;;10422566;28;20227;-69
2022/06/19 17:06:46;;;;;;;19.80;5.93;;;32.60;50.60;;;;;;10430574;28;20224;-69
2022/06/19 17:12:05;;;;;;;14.07;5.77;;;32.20;50.90;;;;;;10428615;28;20265;-69
2022/06/19 17:17:10;;;;;;;17.10;5.47;;;31.90;51.90;;;;;;10415379;28;20904;-69
2022/06/19 17:22:11;;;;;;;14.27;5.37;;;31.80;51.90;;;;;;10421710;28;20274;-68
2022/06/19 17:27:15;;;;;;;16.10;6.00;;;31.70;52.20;;;;;;10412005;28;20631;-69
2022/06/19 17:32:32;;;;;;;11.27;5.47;;;31.60;52.50;;;;;;10431979;28;20227;-68
2022/06/19 17:37:34;;;;;;;19.03;5.70;;;31.30;53.00;;;;;;10423383;28;20292;-69
2022/06/19 17:42:38;;;;;;;14.33;5.43;;;31.00;53.20;;;;;;10421764;28;20243;-68
2022/06/19 17:47:44;;;;;;;16.73;5.73;;;30.80;53.70;;;;;;10422920;28;20261;-68
2022/06/19 17:52:46;;;;;;;10.77;5.67;;;30.60;53.80;;;;;;10416158;28;20227;-68
2022/06/19 17:58:14;;;;;;;18.57;5.73;;;30.40;54.10;;;;;;10437495;28;20819;-68
2022/06/19 18:03:23;;;;;;;11.97;5.43;;;30.20;54.70;;;;;;10440368;28;20220;-69
2022/06/19 18:08:37;;;;;;;13.67;5.60;;;30.00;55.10;;;;;;10441060;28;20239;-68
2022/06/19 18:13:45;;;;;;;12.40;5.50;;;30.00;55.60;;;;;;10426772;28;20216;-68
2022/06/19 18:18:47;;;;;;;15.57;5.70;;;29.90;55.60;;;;;;10430393;28;20767;-68
2022/06/19 18:23:50;;;;;;;15.07;5.90;;;29.80;55.20;;;;;;10426530;28;20213;-69
2022/06/19 18:28:53;;;;;;;14.47;5.30;;;29.50;55.60;;;;;;10437355;28;20350;-68
2022/06/19 18:33:53;;;;;;;16.13;5.13;;;29.30;56.20;;;;;;10429002;28;20224;-69
2022/06/19 18:38:58;;;;;;;14.33;5.17;;;29.20;56.50;;;;;;10434657;28;20250;-69
2022/06/19 18:43:59;;;;;;;15.73;5.20;;;29.10;56.90;;;;;;10426112;28;20281;-69
2022/06/19 18:48:59;;;;;;;11.27;4.63;;;29.10;57.20;;;;;;10429687;28;20319;-68
2022/06/19 18:54:00;;;;;;;13.13;5.37;;;28.90;57.30;;;;;;10430064;28;20240;-69
2022/06/19 18:59:00;;;;;;;10.33;4.87;;;28.90;57.60;;;;;;10422235;28;20228;-69
2022/06/19 19:04:01;;;;;;;12.50;5.13;;;28.80;57.80;;;;;;10429827;28;20241;-68
2022/06/19 19:09:04;;;;;;;11.20;4.87;;;28.70;58.20;;;;;;10423538;28;20219;-67
2022/06/19 19:14:05;;;;;;;14.70;5.07;;;28.50;58.90;;;;;;10422762;28;20255;-67
2022/06/19 19:19:16;;;;;;;14.23;5.27;;;28.30;59.50;;;;;;10426422;28;20239;-67
2022/06/19 19:24:18;;;;;;;14.10;4.90;;;28.20;59.50;;;;;;10420245;28;20231;-69
2022/06/19 19:29:28;;;;;;;11.40;4.60;;;28.10;59.30;;;;;;10425574;28;20227;-69
2022/06/19 19:34:31;;;;;;;12.47;4.50;;;28.00;59.50;;;;;;10413892;28;20232;-70
2022/06/19 19:39:32;;;;;;;13.03;4.63;;;27.90;59.70;;;;;;10426948;28;20873;-69
2022/06/19 19:44:33;;;;;;;12.57;5.30;;;27.80;59.90;;;;;;10420846;28;20260;-69
2022/06/19 19:49:33;;;;;;;18.40;4.77;;;27.70;60.50;;;;;;10423392;28;20594;-69
2022/06/19 19:54:34;;;;;;;19.97;5.03;;;27.70;60.70;;;;;;10412813;28;20223;-69
2022/06/19 19:59:38;;;;;;;20.37;5.33;;;27.60;60.80;;;;;;10418295;28;20228;-68
2022/06/19 20:04:39;;;;;;;13.63;4.50;;;27.40;60.60;;;;;;10424635;28;20227;-69
2022/06/19 20:15:00;;;;;;;16.30;4.87;;;27.00;61.10;;;;;;10426601;28;20676;-68
2022/06/19 20:20:01;;;;;;;12.43;4.60;;;26.90;61.50;;;;;;10414140;28;20227;-70
2022/06/19 20:25:13;;;;;;;9.53;3.93;;;26.80;61.70;;;;;;10422407;28;20220;-70
2022/06/19 20:30:19;;;;;;;14.03;4.43;;;26.70;61.70;;;;;;10411397;28;20232;-69
2022/06/19 20:35:23;;;;;;;12.83;4.17;;;26.70;62.10;;;;;;10420606;28;20193;-71
2022/06/19 20:40:25;;;;;;;12.53;4.53;;;26.60;62.50;;;;;;10423859;28;20239;-71
2022/06/19 20:45:26;;;;;;;13.43;4.37;;;26.50;62.70;;;;;;10433926;28;20224;-70
2022/06/19 20:50:39;;;;;;;14.50;4.27;;;26.40;62.90;;;;;;10417819;28;20314;-71
2022/06/19 20:55:40;;;;;;;7.83;4.33;;;26.30;63.30;;;;;;10438104;28;20216;-70
2022/06/19 21:00:43;;;;;;;13.50;4.50;;;26.30;63.50;;;;;;10420099;28;20296;-70
2022/06/19 21:05:48;;;;;;;12.00;4.67;;;26.20;63.80;;;;;;10413427;28;20266;-70
2022/06/19 21:10:52;;;;;;;14.43;4.60;;;26.10;64.10;;;;;;10425443;28;20225;-69
2022/06/19 21:15:55;;;;;;;10.83;4.60;;;26.10;64.00;;;;;;10423752;28;20308;-70
2022/06/19 21:21:01;;;;;;;10.17;4.17;;;26.00;63.90;;;;;;10423296;28;20270;-70
2022/06/19 21:26:02;;;;;;;9.30;3.93;;;26.00;65.00;;;;;;10421583;28;20696;-71
2022/06/19 21:31:07;;;;;;;8.30;3.83;;;25.90;64.00;;;;;;10420266;28;20230;-69
2022/06/19 21:36:34;;;;;;;17.43;4.37;;;25.80;64.30;;;;;;10423540;28;20216;-69
2022/06/19 21:41:43;;;;;;;7.97;4.10;;;25.80;64.80;;;;;;10415405;28;20303;-71
2022/06/19 21:46:44;;;;;;;13.37;4.20;;;25.80;64.80;;;;;;10423500;28;20228;-68
2022/06/19 21:51:50;;;;;;;13.03;4.20;;;25.60;65.10;;;;;;10424805;28;20227;-69
2022/06/19 21:56:51;;;;;;;13.67;4.13;;;25.60;65.10;;;;;;10428104;28;20228;-69
2022/06/19 22:01:54;;;;;;;14.40;4.40;;;25.50;65.40;;;;;;10422214;28;20527;-69
2022/06/19 22:06:56;;;;;;;11.50;4.00;;;25.40;65.80;;;;;;10426189;28;20224;-70
2022/06/19 22:17:16;;;;;;;8.00;3.73;;;25.20;66.30;;;;;;10424674;28;20224;-69
2022/06/19 22:22:21;;;;;;;10.57;4.00;;;25.10;66.60;;;;;;10429594;28;20224;-69
2022/06/19 22:27:30;;;;;;;10.77;3.77;;;25.00;66.80;;;;;;10425186;28;20646;-69
2022/06/19 22:32:30;;;;;;;10.50;4.00;;;25.00;67.50;;;;;;10417005;28;20242;-69
2022/06/19 22:37:32;;;;;;;8.30;3.67;;;24.90;67.70;;;;;;10427035;28;20224;-69
2022/06/19 22:42:38;;;;;;;10.10;3.60;;;24.90;67.80;;;;;;10425128;28;20350;-68
2022/06/19 22:47:40;;;;;;;11.07;4.03;;;24.80;68.10;;;;;;10426953;28;20224;-68
2022/06/19 22:52:41;;;;;;;6.77;3.50;;;24.70;68.30;;;;;;10423114;28;20603;-68
2022/06/19 22:57:46;;;;;;;9.00;3.70;;;24.60;68.90;;;;;;10416925;28;20227;-69
2022/06/19 23:02:48;;;;;;;8.63;4.10;;;24.50;69.00;;;;;;10430840;28;20817;-70
2022/06/19 23:07:49;;;;;;;10.03;3.90;;;24.40;69.20;;;;;;10425971;28;20226;-69
2022/06/19 23:12:53;;;;;;;11.03;3.57;;;24.30;69.50;;;;;;10423428;28;20251;-70
2022/06/19 23:17:57;;;;;;;6.97;3.40;;;24.20;69.60;;;;;;10430226;28;20252;-69
2022/06/19 23:23:01;;;;;;;13.93;4.00;;;24.10;69.60;;;;;;10427681;28;20226;-69
2022/06/19 23:28:04;;;;;;;8.57;3.50;;;24.00;70.00;;;;;;10431512;28;20219;-69
2022/06/19 23:33:14;;;;;;;12.17;3.70;;;23.90;70.10;;;;;;10422588;28;20231;-69
2022/06/19 23:38:31;;;;;;;9.07;3.30;;;23.70;70.50;;;;;;10426397;28;20737;-69
2022/06/19 23:43:33;;;;;;;7.87;3.40;;;23.70;70.60;;;;;;10418737;28;20305;-69
2022/06/19 23:48:34;;;;;;;7.37;3.30;;;23.60;70.70;;;;;;10426891;28;20230;-69
2022/06/19 23:53:34;;;;;;;8.17;3.20;;;23.60;70.70;;;;;;10425212;28;20593;-68
2022/06/19 23:58:38;;;;;;;10.10;3.30;;;23.50;70.70;;;;;;10413387;28;20223;-69
